Time;durP1;ratioP1;P1;durP2;ratioP2;P2;SDS_P1;SDS_P2;PMS_P1;PMS_P2;Temp;Humidity;BMP_temperature;BMP_pressure;BME280_temperature;BME280_humidity;BME280_pressure;Samples;Min_cycle;Max_cycle;Signal;HPM_P1;HPM_P2
2022/05/07 00:00:02;;;;;;;9.10;7.75;;;;;;;13.05;57.86;101699.13;688186;28;1143;-80
2022/05/07 00:00:26;;;;;;;10.32;8.20;;;;;;;13.01;57.80;101684.13;688903;28;1106;-80
2022/05/07 00:00:47;;;;;;;11.27;8.43;;;;;;;13.03;57.94;101690.28;687829;28;1232;-79
2022/05/07 00:01:07;;;;;;;10.93;8.27;;;;;;;12.96;57.94;101673.50;687722;28;1269;-79
2022/05/07 00:01:28;;;;;;;9.70;8.10;;;;;;;12.98;58.00;101681.41;692839;28;993;-80
2022/05/07 00:01:49;;;;;;;9.53;8.07;;;;;;;12.95;57.94;101676.06;695005;28;1400;-80
2022/05/07 00:02:09;;;;;;;9.82;8.10;;;;;;;12.97;57.96;101671.78;690925;28;1162;-79
2022/05/07 00:02:30;;;;;;;11.37;8.30;;;;;;;13.01;57.94;101686.75;690009;28;1137;-80
2022/05/07 00:02:51;;;;;;;10.97;7.90;;;;;;;12.97;58.22;101687.50;690858;28;1196;-80
2022/05/07 00:03:11;;;;;;;10.35;7.78;;;;;;;12.92;58.23;101675.94;696495;28;1072;-79
2022/05/07 00:03:32;;;;;;;9.30;7.50;;;;;;;12.94;57.79;101683.03;693380;28;1172;-80
2022/05/07 00:03:52;;;;;;;9.83;7.50;;;;;;;12.96;57.91;101685.72;693711;28;1132;-80
2022/05/07 00:04:13;;;;;;;11.77;7.90;;;;;;;12.95;57.80;101689.16;690887;28;1343;-80
2022/05/07 00:04:36;;;;;;;12.70;7.90;;;;;;;12.97;57.86;101692.75;696460;28;790;-80
2022/05/07 00:04:56;;;;;;;12.60;8.20;;;;;;;12.88;57.98;101678.47;690947;28;929;-80
2022/05/07 00:05:19;;;;;;;10.20;7.80;;;;;;;12.82;58.18;101672.13;682854;28;1629;-80
2022/05/07 00:05:39;;;;;;;9.18;7.55;;;;;;;12.83;57.95;101682.66;685464;28;1202;-80
2022/05/07 00:06:33;;;;;;;8.82;7.50;;;;;;;12.90;58.21;101696.84;685683;28;864;-80
2022/05/07 00:06:53;;;;;;;9.88;7.78;;;;;;;12.80;58.33;101677.31;692344;28;1346;-79
2022/05/07 00:07:14;;;;;;;9.70;7.70;;;;;;;12.79;58.30;101678.13;693529;28;1215;-81
2022/05/07 00:07:34;;;;;;;10.57;7.70;;;;;;;12.78;58.47;101675.50;688160;28;1223;-80
2022/05/07 00:07:55;;;;;;;11.00;7.82;;;;;;;12.78;58.31;101676.34;699089;28;1211;-80
2022/05/07 00:08:16;;;;;;;11.18;8.02;;;;;;;12.87;58.42;101686.25;693529;28;1060;-80
2022/05/07 00:08:36;;;;;;;9.90;8.00;;;;;;;12.79;58.36;101675.50;685652;28;796;-80
2022/05/07 00:08:57;;;;;;;9.13;7.90;;;;;;;12.81;58.20;101676.47;689287;28;1286;-80
2022/05/07 00:09:18;;;;;;;10.38;7.70;;;;;;;12.84;58.44;101684.44;690877;28;1118;-80
2022/05/07 00:09:39;;;;;;;10.85;8.30;;;;;;;12.88;58.53;101688.94;687514;28;1207;-80
2022/05/07 00:09:59;;;;;;;11.25;8.32;;;;;;;12.89;58.32;101690.72;690476;28;1287;-79
2022/05/07 00:10:20;;;;;;;9.90;8.13;;;;;;;12.80;58.31;101669.47;688065;28;1981;-79
2022/05/07 00:10:43;;;;;;;11.43;7.85;;;;;;;12.89;58.51;101692.44;690925;28;1123;-81
2022/05/07 00:11:03;;;;;;;11.50;7.93;;;;;;;12.85;58.69;101682.72;690785;28;1635;-80
2022/05/07 00:11:24;;;;;;;11.47;8.20;;;;;;;12.82;58.59;101678.25;693629;28;1255;-80
2022/05/07 00:11:48;;;;;;;10.90;8.20;;;;;;;12.80;58.51;101674.72;691032;28;903;-80
2022/05/07 00:12:09;;;;;;;10.18;8.00;;;;;;;12.86;58.63;101685.38;688315;28;1052;-80
2022/05/07 00:12:30;;;;;;;10.48;7.80;;;;;;;12.95;58.20;101691.78;688044;28;1302;-80
2022/05/07 00:12:50;;;;;;;10.18;8.10;;;;;;;12.91;58.53;101685.50;682913;29;865;-80
2022/05/07 00:13:11;;;;;;;10.97;8.80;;;;;;;12.96;58.40;101691.84;688257;28;946;-80
2022/05/07 00:13:32;;;;;;;11.35;8.95;;;;;;;12.93;58.12;101688.19;688260;28;1143;-79
2022/05/07 00:13:52;;;;;;;11.23;8.77;;;;;;;12.91;58.40;101682.03;693627;28;1192;-80
2022/05/07 00:14:13;;;;;;;10.85;8.32;;;;;;;12.86;58.39;101684.50;690935;28;997;-80
2022/05/07 00:14:34;;;;;;;9.97;7.70;;;;;;;12.86;58.45;101685.38;693774;28;743;-80
2022/05/07 00:14:55;;;;;;;11.18;7.50;;;;;;;12.79;58.28;101677.25;690857;28;1151;-80
2022/05/07 00:15:15;;;;;;;11.50;7.40;;;;;;;12.80;58.62;101679.94;690689;28;1351;-79
2022/05/07 00:15:36;;;;;;;12.10;7.85;;;;;;;12.75;58.62;101682.41;690972;28;693;-80
2022/05/07 00:18:07;;;;;;;11.25;7.57;;;;;;;12.79;58.56;101683.38;690898;28;1287;-80
2022/05/07 00:18:29;;;;;;;10.20;7.80;;;;;;;12.83;58.68;101684.38;688008;28;1178;-80
2022/05/07 00:18:50;;;;;;;9.85;8.00;;;;;;;12.79;58.83;101679.88;684817;28;1356;-80
2022/05/07 00:19:33;;;;;;;9.23;8.20;;;;;;;12.85;58.96;101688.81;685611;28;993;-80
2022/05/07 00:19:53;;;;;;;11.95;8.02;;;;;;;12.87;58.82;101686.25;687717;28;918;-80
2022/05/07 00:20:14;;;;;;;12.47;8.00;;;;;;;12.75;58.80;101666.69;690801;28;1633;-80
2022/05/07 00:20:35;;;;;;;10.60;7.88;;;;;;;12.86;58.75;101687.97;690901;28;1398;-80
2022/05/07 00:20:55;;;;;;;10.95;7.65;;;;;;;12.75;58.83;101666.69;690901;28;1434;-80
2022/05/07 00:21:16;;;;;;;10.77;7.80;;;;;;;12.79;58.53;101677.25;688020;28;1083;-79
2022/05/07 00:21:36;;;;;;;10.68;7.97;;;;;;;12.81;58.69;101681.72;688280;28;768;-80
2022/05/07 00:21:57;;;;;;;13.70;7.88;;;;;;;12.79;58.83;101672.91;688252;28;1441;-79
2022/05/07 00:22:18;;;;;;;14.15;7.80;;;;;;;12.81;58.87;101672.97;688015;28;1326;-79
2022/05/07 00:22:39;;;;;;;13.25;7.97;;;;;;;12.83;58.83;101682.66;688226;28;1342;-81
2022/05/07 00:23:01;;;;;;;9.50;8.27;;;;;;;12.81;58.82;101676.47;688165;28;1307;-80
2022/05/07 00:23:21;;;;;;;9.80;8.10;;;;;;;12.82;59.16;101683.50;688168;28;1051;-80
2022/05/07 00:23:42;;;;;;;9.68;7.57;;;;;;;12.86;58.90;101685.38;685530;28;1197;-80
2022/05/07 00:24:03;;;;;;;9.85;7.50;;;;;;;12.80;58.79;101684.28;685509;28;1164;-80
2022/05/07 00:24:24;;;;;;;10.43;7.82;;;;;;;12.78;58.72;101673.75;687943;28;1141;-80
2022/05/07 00:24:44;;;;;;;11.57;8.25;;;;;;;12.80;58.96;101677.31;688302;28;749;-80
2022/05/07 00:25:05;;;;;;;11.30;8.50;;;;;;;12.78;58.81;101671.13;690309;28;1087;-79
2022/05/07 00:25:28;;;;;;;11.10;8.00;;;;;;;12.79;59.00;101682.50;690807;28;1343;-80
2022/05/07 00:25:49;;;;;;;10.32;7.90;;;;;;;12.78;58.86;101686.84;693500;28;1202;-80
2022/05/07 00:26:10;;;;;;;9.95;7.60;;;;;;;12.74;58.88;101674.50;688318;28;1056;-80
2022/05/07 00:26:30;;;;;;;9.90;7.73;;;;;;;12.75;59.02;101681.50;688060;28;1160;-80
2022/05/07 00:26:51;;;;;;;9.70;7.60;;;;;;;12.74;58.89;101679.72;688146;28;1216;-79
2022/05/07 00:27:13;;;;;;;9.90;7.90;;;;;;;12.69;58.76;101678.66;688206;28;974;-80
2022/05/07 00:27:34;;;;;;;8.95;7.57;;;;;;;12.64;58.81;101661.94;693639;28;1111;-79
2022/05/07 00:27:54;;;;;;;8.73;7.55;;;;;;;12.67;58.95;101683.84;688180;28;808;-80
2022/05/07 00:28:15;;;;;;;9.32;8.10;;;;;;;12.59;58.85;101664.38;690514;28;1322;-80
2022/05/07 00:28:36;;;;;;;10.37;8.80;;;;;;;12.65;59.10;101684.66;690804;28;1244;-80
2022/05/07 00:28:56;;;;;;;10.57;8.75;;;;;;;12.63;58.75;101681.06;685507;28;1224;-80
2022/05/07 00:29:17;;;;;;;10.10;8.20;;;;;;;12.63;59.04;101676.75;690734;28;1185;-80
2022/05/07 00:29:38;;;;;;;10.10;8.20;;;;;;;12.53;58.96;101664.19;690340;28;807;-81
2022/05/07 00:29:58;;;;;;;9.10;7.70;;;;;;;12.52;59.14;101665.91;693570;28;1341;-80
2022/05/07 00:30:20;;;;;;;9.80;7.53;;;;;;;12.56;58.90;101674.75;687898;28;1916;-80
2022/05/07 00:30:40;;;;;;;9.40;7.22;;;;;;;12.49;59.03;101663.19;685556;28;956;-79
2022/05/07 00:31:01;;;;;;;10.30;7.80;;;;;;;12.56;59.04;101678.28;685523;28;1288;-80
2022/05/07 00:31:22;;;;;;;9.90;7.90;;;;;;;12.54;58.97;101677.31;685429;28;969;-80
2022/05/07 00:31:43;;;;;;;10.90;8.00;;;;;;;12.54;59.12;101677.31;693543;28;1161;-80
2022/05/07 00:32:04;;;;;;;10.90;7.90;;;;;;;12.50;58.88;101677.16;690963;28;1052;-80
2022/05/07 00:32:24;;;;;;;10.63;8.10;;;;;;;12.54;59.29;101679.06;688094;28;1398;-80
2022/05/07 00:32:45;;;;;;;9.57;7.97;;;;;;;12.50;59.25;101675.44;685536;28;838;-80
2022/05/07 00:33:05;;;;;;;10.38;8.02;;;;;;;12.49;59.33;101673.66;688018;28;1298;-80
2022/05/07 00:33:26;;;;;;;11.23;8.27;;;;;;;12.55;59.13;101681.69;688181;28;1080;-79
2022/05/07 00:33:47;;;;;;;11.65;8.30;;;;;;;12.45;59.14;101672.66;688200;28;914;-80
2022/05/07 00:34:08;;;;;;;11.33;8.47;;;;;;;12.49;59.27;101676.28;684858;28;1285;-79
2022/05/07 00:34:28;;;;;;;11.02;8.50;;;;;;;12.51;59.35;101679.84;688028;28;1158;-80
2022/05/07 00:34:49;;;;;;;10.40;8.52;;;;;;;12.44;59.29;101670.88;688143;28;1208;-80
2022/05/07 00:35:10;;;;;;;11.18;8.40;;;;;;;12.40;59.39;101673.34;682653;28;1170;-80
2022/05/07 00:35:31;;;;;;;10.88;8.15;;;;;;;12.34;59.69;101671.38;685613;28;1373;-80
2022/05/07 00:35:51;;;;;;;11.15;8.25;;;;;;;12.38;59.62;101667.16;685520;28;1299;-80
2022/05/07 00:36:12;;;;;;;10.40;8.20;;;;;;;12.36;59.78;101676.69;680178;29;1263;-80
2022/05/07 00:36:33;;;;;;;11.38;8.73;;;;;;;12.30;59.76;101662.53;687938;28;1131;-80
2022/05/07 00:36:54;;;;;;;11.90;8.83;;;;;;;12.25;59.89;101664.13;688329;28;764;-80
2022/05/07 00:37:14;;;;;;;12.48;9.38;;;;;;;12.29;59.97;101678.19;685378;28;1034;-79
2022/05/07 00:37:35;;;;;;;12.45;9.23;;;;;;;12.26;60.17;101671.13;685571;28;820;-80
2022/05/07 00:37:55;;;;;;;15.10;9.77;;;;;;;12.27;59.98;101672.00;685507;28;1362;-80
2022/05/07 00:38:16;;;;;;;15.10;9.43;;;;;;;12.24;59.90;101664.94;688063;28;983;-80
2022/05/07 00:38:37;;;;;;;14.25;9.30;;;;;;;12.23;59.96;101665.75;688188;28;872;-80
2022/05/07 00:38:58;;;;;;;11.77;9.00;;;;;;;12.29;60.07;101673.84;690918;28;745;-80
2022/05/07 00:39:18;;;;;;;11.30;9.20;;;;;;;12.27;60.26;101672.91;682609;28;1224;-80
2022/05/07 00:39:39;;;;;;;11.20;9.15;;;;;;;12.29;60.08;101668.59;684089;28;1293;-79
2022/05/07 00:39:59;;;;;;;11.90;8.93;;;;;;;12.27;59.91;101672.91;685140;28;1405;-80
2022/05/07 00:40:20;;;;;;;12.63;9.20;;;;;;;12.30;60.26;101672.13;688087;28;977;-80
2022/05/07 00:40:40;;;;;;;12.80;9.37;;;;;;;12.31;60.33;101680.00;688189;28;1150;-80
2022/05/07 00:41:01;;;;;;;12.77;9.53;;;;;;;12.32;60.46;101686.16;685531;28;1082;-80
2022/05/07 00:41:22;;;;;;;13.10;9.40;;;;;;;12.23;60.19;101671.00;685291;28;1180;-80
2022/05/07 00:41:43;;;;;;;13.05;9.32;;;;;;;12.26;60.45;101671.13;688307;28;764;-80
2022/05/07 00:42:05;;;;;;;12.27;8.80;;;;;;;12.26;60.23;101678.97;690838;28;999;-80
2022/05/07 00:42:25;;;;;;;12.18;8.80;;;;;;;12.24;60.48;101675.44;690043;28;1272;-80
2022/05/07 00:42:46;;;;;;;11.40;8.88;;;;;;;12.22;60.29;101678.81;687865;28;1078;-80
2022/05/07 00:43:06;;;;;;;12.60;9.30;;;;;;;12.24;59.99;101675.44;690876;28;1071;-80
2022/05/07 00:43:44;;;;;;;13.67;9.23;;;;;;;12.22;60.29;101679.69;688024;28;1208;-80
2022/05/07 00:44:05;;;;;;;14.00;9.10;;;;;;;12.25;60.10;101685.06;693358;28;1551;-80
2022/05/07 00:44:26;;;;;;;12.10;8.60;;;;;;;12.23;60.38;101676.22;688186;28;1028;-79
2022/05/07 00:44:46;;;;;;;10.32;8.48;;;;;;;12.13;60.37;101663.66;687970;28;1193;-79
2022/05/07 00:45:07;;;;;;;11.87;8.90;;;;;;;12.18;60.21;101676.06;685200;28;1269;-80
2022/05/07 00:45:28;;;;;;;12.32;9.10;;;;;;;12.10;60.29;101658.34;690818;28;1072;-80
2022/05/07 00:45:50;;;;;;;12.00;8.82;;;;;;;12.13;60.01;101668.91;693550;28;1062;-79
2022/05/07 00:46:11;;;;;;;9.80;8.23;;;;;;;12.15;60.34;101672.44;693462;28;1374;-80
2022/05/07 00:46:32;;;;;;;9.70;8.10;;;;;;;12.17;60.39;101681.28;690670;28;1167;-80
2022/05/07 00:46:53;;;;;;;11.95;8.05;;;;;;;12.09;60.35;101667.03;685313;28;1329;-80
2022/05/07 00:47:14;;;;;;;12.90;8.45;;;;;;;12.15;60.40;101678.59;685440;28;1105;-80
2022/05/07 00:47:35;;;;;;;14.40;8.83;;;;;;;12.12;60.48;101678.50;682787;29;1258;-80
2022/05/07 00:47:55;;;;;;;12.07;8.40;;;;;;;12.14;60.62;101686.38;688235;28;761;-80
2022/05/07 00:48:16;;;;;;;11.20;7.95;;;;;;;12.12;60.52;101677.59;690556;28;1203;-79
2022/05/07 00:48:38;;;;;;;9.55;7.65;;;;;;;12.10;60.17;101684.50;691001;28;1637;-80
2022/05/07 00:48:58;;;;;;;9.20;7.85;;;;;;;12.10;60.30;101674.91;688157;28;906;-80
2022/05/07 00:49:19;;;;;;;11.25;8.30;;;;;;;12.04;60.53;101662.50;690726;28;1119;-80
2022/05/07 00:49:43;;;;;;;11.50;8.55;;;;;;;12.11;60.31;101678.41;689782;28;1207;-80
2022/05/07 00:51:34;;;;;;;12.52;8.30;;;;;;;12.03;60.70;101655.50;685283;28;1127;-79
2022/05/07 00:51:54;;;;;;;10.18;8.05;;;;;;;12.07;60.69;101659.97;687689;28;1447;-79
2022/05/07 00:52:16;;;;;;;10.13;8.00;;;;;;;12.15;60.43;101661.97;682550;29;1154;-81
2022/05/07 00:52:37;;;;;;;9.02;7.75;;;;;;;12.20;60.34;101663.03;685533;28;768;-79
2022/05/07 00:52:57;;;;;;;9.98;8.38;;;;;;;12.25;60.38;101668.44;685485;28;870;-80
2022/05/07 00:53:18;;;;;;;10.77;8.38;;;;;;;12.21;60.63;101662.22;685208;28;1206;-80
2022/05/07 00:53:51;;;;;;;11.93;8.87;;;;;;;12.27;60.63;101672.91;685485;28;1269;-80
2022/05/07 00:54:13;;;;;;;10.65;8.60;;;;;;;12.16;60.67;101666.41;688127;28;1389;-80
2022/05/07 00:54:34;;;;;;;10.32;8.75;;;;;;;12.16;60.60;101655.94;688066;28;910;-79
2022/05/07 00:54:55;;;;;;;10.95;8.35;;;;;;;12.19;60.91;101667.38;690873;28;823;-80
2022/05/07 00:55:16;;;;;;;10.83;8.17;;;;;;;12.15;60.65;101657.66;687994;28;1130;-80
2022/05/07 00:55:37;;;;;;;10.13;7.60;;;;;;;12.16;60.65;101658.56;685473;28;951;-80
2022/05/07 00:55:58;;;;;;;9.43;7.45;;;;;;;12.13;60.45;101661.94;690919;28;792;-79
2022/05/07 00:56:18;;;;;;;10.00;7.20;;;;;;;12.12;60.65;101665.41;685138;28;1249;-79
2022/05/07 00:56:39;;;;;;;10.20;7.10;;;;;;;12.15;60.48;101667.22;688073;28;1074;-80
2022/05/07 00:57:00;;;;;;;10.23;7.20;;;;;;;12.13;60.73;101671.50;693474;28;1329;-80
2022/05/07 00:57:21;;;;;;;10.00;7.60;;;;;;;12.13;60.50;101666.28;690839;28;1144;-80
2022/05/07 00:57:42;;;;;;;9.50;7.70;;;;;;;12.09;60.61;101657.44;690647;28;1346;-80
2022/05/07 00:58:04;;;;;;;9.60;7.80;;;;;;;12.03;60.72;101647.63;690813;28;1286;-80
2022/05/07 00:58:24;;;;;;;10.20;7.50;;;;;;;12.12;60.44;101667.13;693504;28;1052;-80
2022/05/07 00:58:45;;;;;;;10.43;7.60;;;;;;;12.05;60.42;101656.44;690493;28;1150;-80
2022/05/07 00:59:08;;;;;;;11.00;7.60;;;;;;;12.09;60.64;101664.41;685411;28;954;-80
2022/05/07 00:59:35;;;;;;;10.10;7.70;;;;;;;12.04;60.54;101656.38;685192;28;767;-80
2022/05/07 00:59:57;;;;;;;9.98;7.60;;;;;;;12.09;60.81;101667.91;688032;28;855;-80
2022/05/07 01:00:18;;;;;;;9.80;7.63;;;;;;;12.12;60.51;101673.25;687097;28;1226;-79
2022/05/07 01:00:38;;;;;;;9.73;7.53;;;;;;;12.13;60.45;101668.91;693456;28;1184;-80
2022/05/07 01:00:59;;;;;;;9.50;7.55;;;;;;;12.18;60.68;101672.56;685534;28;1251;-79
2022/05/07 01:01:20;;;;;;;9.23;7.77;;;;;;;12.11;60.70;101657.50;682858;28;1572;-80
2022/05/07 01:01:41;;;;;;;8.98;7.97;;;;;;;12.25;60.66;101663.22;688024;28;1352;-79
2022/05/07 01:02:02;;;;;;;8.90;8.00;;;;;;;12.23;60.48;101657.91;690785;28;1210;-79
2022/05/07 01:02:23;;;;;;;10.57;7.93;;;;;;;12.35;60.30;101670.53;687988;28;1171;-80
2022/05/07 01:02:43;;;;;;;10.85;7.78;;;;;;;12.35;60.18;101660.06;685488;28;776;-80
2022/05/07 01:03:04;;;;;;;11.00;7.85;;;;;;;12.34;60.41;101653.97;690583;28;1330;-80
2022/05/07 01:03:25;;;;;;;9.18;7.57;;;;;;;12.41;60.06;101664.66;688013;28;1029;-80
2022/05/07 01:03:46;;;;;;;9.63;7.38;;;;;;;12.41;59.99;101657.66;688093;28;1176;-79
2022/05/07 01:04:07;;;;;;;9.82;7.45;;;;;;;12.43;59.99;101661.22;690870;28;1104;-80
2022/05/07 01:04:29;;;;;;;11.35;8.10;;;;;;;12.47;59.98;101659.59;685855;28;1686;-80
2022/05/07 01:04:50;;;;;;;9.70;7.70;;;;;;;12.44;59.88;101651.66;690819;28;1322;-80
2022/05/07 01:05:12;;;;;;;9.80;7.40;;;;;;;12.50;59.78;101664.97;685369;28;1119;-80
2022/05/07 01:05:33;;;;;;;10.98;7.28;;;;;;;12.50;59.77;101650.97;682704;28;1361;-79
2022/05/07 01:05:54;;;;;;;12.00;7.60;;;;;;;12.55;59.78;101657.25;688153;28;864;-80
2022/05/07 01:06:15;;;;;;;12.80;7.70;;;;;;;12.54;59.84;101656.34;690704;28;1126;-79
2022/05/07 01:06:36;;;;;;;11.02;7.57;;;;;;;12.61;59.75;101666.22;690723;28;1394;-80
2022/05/07 01:07:02;;;;;;;10.23;7.30;;;;;;;12.60;59.70;101667.06;685381;28;1275;-79
2022/05/07 01:07:23;;;;;;;9.55;7.30;;;;;;;12.63;59.84;101673.22;685267;28;1258;-80
2022/05/07 01:07:45;;;;;;;10.27;7.30;;;;;;;12.57;59.90;101661.72;690820;28;1163;-80
2022/05/07 01:08:12;;;;;;;10.00;7.28;;;;;;;12.56;59.65;101659.94;690707;28;1304;-79
2022/05/07 01:08:35;;;;;;;9.38;7.28;;;;;;;12.56;59.98;101654.72;690690;28;1149;-80
2022/05/07 01:08:56;;;;;;;9.20;7.32;;;;;;;12.65;59.71;101674.19;688074;28;1114;-80
2022/05/07 01:09:17;;;;;;;9.45;7.80;;;;;;;12.63;59.74;101657.50;687827;28;1154;-81
2022/05/07 01:09:39;;;;;;;9.20;7.93;;;;;;;12.66;60.02;101663.75;684835;28;1217;-80
2022/05/07 01:10:02;;;;;;;8.77;7.88;;;;;;;12.68;59.73;101667.31;684639;28;1469;-80
2022/05/07 01:10:24;;;;;;;9.13;8.00;;;;;;;12.69;59.64;101665.56;690601;28;1922;-80
2022/05/07 01:10:47;;;;;;;9.60;8.05;;;;;;;12.68;59.61;101666.41;690736;28;1208;-80
2022/05/07 01:11:09;;;;;;;9.50;7.68;;;;;;;12.70;59.23;101663.03;685351;28;1429;-80
2022/05/07 01:11:31;;;;;;;10.95;7.38;;;;;;;12.73;59.42;101667.47;687905;28;1470;-80
2022/05/07 01:11:54;;;;;;;14.32;7.72;;;;;;;12.68;59.59;101655.94;693522;28;1231;-80
2022/05/07 01:12:16;;;;;;;18.33;8.20;;;;;;;12.71;59.58;101661.28;693149;28;1130;-79
2022/05/07 01:12:38;;;;;;;15.68;7.90;;;;;;;12.73;59.37;101659.63;690716;28;823;-80
2022/05/07 01:13:01;;;;;;;12.85;7.80;;;;;;;12.78;59.41;101665.88;690801;28;950;-80
2022/05/07 01:13:22;;;;;;;10.65;8.20;;;;;;;12.74;59.14;101664.00;690641;28;1383;-80
2022/05/07 01:13:45;;;;;;;9.80;7.97;;;;;;;12.80;59.37;101669.47;690704;28;1390;-80
2022/05/07 01:14:07;;;;;;;8.60;7.45;;;;;;;12.76;59.23;101662.34;687996;28;1266;-79
2022/05/07 01:14:29;;;;;;;9.63;7.13;;;;;;;12.74;59.31;101658.78;687904;28;953;-80
2022/05/07 01:14:52;;;;;;;10.00;7.10;;;;;;;12.71;58.93;101656.03;690873;28;846;-81
2022/05/07 01:15:25;;;;;;;10.55;7.28;;;;;;;12.77;59.05;101668.47;685481;28;1374;-81
2022/05/07 01:16:04;;;;;;;11.80;7.50;;;;;;;12.76;59.09;101662.34;688047;28;684;-80
2022/05/07 01:16:36;;;;;;;9.20;6.90;;;;;;;12.74;58.99;101661.41;687894;28;1161;-79
2022/05/07 01:16:56;;;;;;;9.77;7.20;;;;;;;12.77;58.90;101664.09;692746;28;1158;-80
2022/05/07 01:17:17;;;;;;;10.68;7.90;;;;;;;12.79;58.81;101667.66;685319;28;1029;-80
2022/05/07 01:17:38;;;;;;;10.47;8.10;;;;;;;12.76;58.50;101657.09;696051;28;1255;-79
2022/05/07 01:18:04;;;;;;;11.25;7.97;;;;;;;12.81;58.63;101663.38;687913;28;1310;-80
2022/05/07 01:18:25;;;;;;;10.90;8.15;;;;;;;12.81;58.69;101660.75;685324;28;1286;-79
2022/05/07 01:18:45;;;;;;;10.23;7.80;;;;;;;12.85;58.76;101664.38;685440;28;823;-80
2022/05/07 01:19:07;;;;;;;10.27;7.93;;;;;;;12.87;58.85;101670.53;685412;28;1119;-80
2022/05/07 01:19:27;;;;;;;10.98;7.80;;;;;;;12.78;58.74;101657.16;690548;28;1108;-79
2022/05/07 01:19:51;;;;;;;11.30;7.60;;;;;;;12.81;58.84;101658.16;692999;28;1458;-80
2022/05/07 01:20:14;;;;;;;11.50;7.80;;;;;;;12.79;58.68;101651.94;690651;28;1563;-80
2022/05/07 01:20:35;;;;;;;10.40;7.97;;;;;;;12.79;58.97;101653.69;688055;28;834;-80
2022/05/07 01:20:57;;;;;;;10.90;8.30;;;;;;;12.74;58.67;101654.41;688111;28;1286;-80
2022/05/07 01:21:18;;;;;;;10.85;8.13;;;;;;;12.71;58.78;101642.94;690590;28;1376;-80
2022/05/07 01:21:42;;;;;;;10.23;7.78;;;;;;;12.75;58.98;101656.22;687916;28;1248;-80
2022/05/07 01:22:03;;;;;;;10.30;7.78;;;;;;;12.79;58.93;101659.78;688091;28;1130;-80
2022/05/07 01:22:26;;;;;;;9.18;7.40;;;;;;;12.70;58.94;101647.31;682704;29;1224;-79
2022/05/07 01:23:17;;;;;;;10.10;7.40;;;;;;;12.78;58.91;101659.78;685336;28;804;-80
2022/05/07 01:23:41;;;;;;;9.60;7.80;;;;;;;12.77;59.05;101663.22;690145;28;1542;-80
2022/05/07 01:24:02;;;;;;;10.15;8.30;;;;;;;12.74;58.96;101653.53;690599;28;1340;-80
2022/05/07 01:24:27;;;;;;;10.18;8.20;;;;;;;12.65;59.09;101646.25;685208;28;1392;-79
2022/05/07 01:24:48;;;;;;;12.27;8.10;;;;;;;12.71;59.19;101656.94;685314;28;1231;-80
2022/05/07 01:25:09;;;;;;;14.05;8.07;;;;;;;12.72;58.88;101661.34;685356;28;1074;-80
2022/05/07 01:25:29;;;;;;;14.27;8.05;;;;;;;12.66;59.10;101653.25;687959;28;1166;-79
2022/05/07 01:25:51;;;;;;;12.07;8.40;;;;;;;12.64;59.22;101647.09;686471;28;1203;-79
2022/05/07 01:26:12;;;;;;;9.93;8.30;;;;;;;12.67;59.31;101651.56;685349;28;1279;-80
2022/05/07 01:26:33;;;;;;;10.13;8.27;;;;;;;12.67;59.29;101656.78;690600;28;1217;-80
2022/05/07 01:26:55;;;;;;;11.68;8.50;;;;;;;12.70;59.35;101659.50;690664;28;1397;-80
2022/05/07 01:27:15;;;;;;;11.87;8.70;;;;;;;12.66;59.31;101655.88;690736;28;1087;-80
2022/05/07 01:27:36;;;;;;;11.57;9.07;;;;;;;12.65;59.53;101640.16;688036;28;1044;-80
2022/05/07 01:27:57;;;;;;;11.15;9.00;;;;;;;12.60;59.53;101638.25;688857;28;1266;-79
2022/05/07 01:28:18;;;;;;;10.35;8.73;;;;;;;12.57;59.40;101630.31;687781;28;1342;-79
2022/05/07 01:28:39;;;;;;;10.18;8.43;;;;;;;12.65;59.53;101653.25;693338;28;1103;-80
2022/05/07 01:29:07;;;;;;;10.25;8.25;;;;;;;12.56;59.58;101639.00;690712;28;1357;-80
2022/05/07 01:29:32;;;;;;;11.25;8.80;;;;;;;12.56;59.61;101643.34;692802;28;1121;-79
2022/05/07 01:29:52;;;;;;;10.88;8.40;;;;;;;12.61;59.52;101650.50;687892;28;1164;-80
2022/05/07 01:30:13;;;;;;;10.00;7.90;;;;;;;12.57;59.53;101646.00;687056;28;1883;-79
2022/05/07 01:30:34;;;;;;;9.70;8.10;;;;;;;12.60;59.48;101653.97;685275;28;1206;-79
2022/05/07 01:30:55;;;;;;;10.85;8.65;;;;;;;12.54;59.66;101648.50;693429;28;1137;-79
2022/05/07 01:31:16;;;;;;;10.25;8.60;;;;;;;12.50;59.49;101641.41;690556;28;1008;-80
2022/05/07 01:31:37;;;;;;;10.55;8.65;;;;;;;12.52;59.85;101650.19;690758;28;1410;-80
2022/05/07 01:32:00;;;;;;;10.75;8.90;;;;;;;12.53;59.86;101654.59;690701;28;1159;-80
2022/05/07 01:32:22;;;;;;;10.77;8.70;;;;;;;12.49;59.82;101642.25;687458;28;1103;-80
2022/05/07 01:32:42;;;;;;;11.73;8.82;;;;;;;12.51;60.02;101651.03;690720;28;1379;-80
2022/05/07 01:33:03;;;;;;;11.17;8.60;;;;;;;12.46;59.96;101643.03;685432;28;1124;-80
2022/05/07 01:33:25;;;;;;;12.07;9.13;;;;;;;12.47;59.72;101655.28;687984;28;1048;-79
2022/05/07 01:33:45;;;;;;;11.73;9.15;;;;;;;12.44;59.87;101643.81;693021;28;1285;-80
2022/05/07 01:34:09;;;;;;;11.18;9.13;;;;;;;12.50;59.71;101659.72;696214;28;972;-80
2022/05/07 01:34:33;;;;;;;11.52;9.00;;;;;;;12.42;60.07;101648.97;690650;28;1127;-80
2022/05/07 01:34:54;;;;;;;11.38;8.77;;;;;;;12.41;60.01;101644.59;690760;28;936;-80
2022/05/07 01:35:15;;;;;;;11.38;8.95;;;;;;;12.40;60.12;101652.41;690662;28;1202;-80
2022/05/07 01:35:38;;;;;;;11.25;9.40;;;;;;;12.45;60.18;101663.91;690644;28;835;-81
2022/05/07 01:36:02;;;;;;;13.30;9.55;;;;;;;12.40;60.16;101657.63;688152;28;1266;-80
2022/05/07 01:36:24;;;;;;;13.25;9.23;;;;;;;12.39;60.11;101655.84;687740;28;1336;-80
2022/05/07 01:36:51;;;;;;;12.90;9.07;;;;;;;12.35;60.37;101649.59;690787;28;866;-80
2022/05/07 01:37:13;;;;;;;11.60;8.63;;;;;;;12.27;60.39;101640.59;690645;28;1272;-80
2022/05/07 01:37:34;;;;;;;10.95;8.57;;;;;;;12.33;60.48;101652.19;690827;28;870;-80
2022/05/07 01:37:55;;;;;;;10.85;8.68;;;;;;;12.33;60.54;101646.94;690563;28;1311;-80
2022/05/07 01:38:17;;;;;;;11.00;8.98;;;;;;;12.31;60.41;101647.72;682615;29;1079;-79
2022/05/07 01:38:38;;;;;;;13.05;9.45;;;;;;;12.26;60.68;101646.66;690752;28;912;-80
2022/05/07 01:38:58;;;;;;;12.65;9.40;;;;;;;12.23;60.67;101644.81;688156;28;753;-80
2022/05/07 01:39:19;;;;;;;14.10;9.70;;;;;;;12.30;60.79;101656.41;690597;28;1175;-80
2022/05/07 01:39:40;;;;;;;11.80;9.05;;;;;;;12.27;60.85;101651.97;689983;28;820;-80
2022/05/07 01:40:01;;;;;;;13.60;8.80;;;;;;;12.26;60.70;101644.03;690760;28;1140;-80
2022/05/07 01:40:22;;;;;;;12.20;8.85;;;;;;;12.26;60.94;101644.94;693460;28;1015;-79
2022/05/07 01:40:47;;;;;;;12.40;8.85;;;;;;;12.28;60.97;101642.41;689940;28;1405;-81
2022/05/07 01:41:08;;;;;;;12.90;9.00;;;;;;;12.23;61.04;101639.59;687976;28;1203;-79
2022/05/07 01:41:29;;;;;;;12.80;8.93;;;;;;;12.29;61.06;101655.50;693325;28;1497;-80
2022/05/07 01:41:50;;;;;;;12.65;9.07;;;;;;;12.25;60.98;101647.50;693463;28;1162;-79
2022/05/07 01:42:11;;;;;;;11.70;8.80;;;;;;;12.25;60.97;101647.50;688034;28;1246;-81
2022/05/07 01:42:32;;;;;;;11.45;8.57;;;;;;;12.25;60.92;101651.03;682529;29;1296;-80
2022/05/07 01:42:53;;;;;;;11.00;8.32;;;;;;;12.22;60.93;101648.28;687957;28;1206;-80
2022/05/07 01:43:13;;;;;;;11.25;8.50;;;;;;;12.18;61.35;101635.94;690606;28;1158;-80
2022/05/07 01:43:35;;;;;;;12.02;8.70;;;;;;;12.25;61.09;101640.56;690701;28;1411;-79
2022/05/07 01:43:56;;;;;;;12.80;8.80;;;;;;;12.18;61.26;101643.78;685350;28;749;-80
2022/05/07 01:44:17;;;;;;;13.47;9.20;;;;;;;12.16;61.32;101637.63;693294;28;1263;-80
2022/05/07 01:44:38;;;;;;;13.32;9.23;;;;;;;12.16;61.17;101637.63;690656;28;1385;-80
2022/05/07 01:44:59;;;;;;;11.73;9.10;;;;;;;12.20;60.90;101648.25;688033;28;1248;-79
2022/05/07 01:45:20;;;;;;;12.10;8.80;;;;;;;12.11;61.17;101644.41;685240;28;1069;-80
2022/05/07 01:45:41;;;;;;;12.65;8.60;;;;;;;12.12;61.35;101644.47;690499;28;1310;-79
2022/05/07 01:46:02;;;;;;;12.90;8.80;;;;;;;12.09;61.39;101640.84;690791;28;826;-80
2022/05/07 01:48:39;;;;;;;10.88;8.50;;;;;;;11.93;61.72;101627.22;690606;28;1174;-79
2022/05/07 01:49:00;;;;;;;10.98;8.90;;;;;;;12.03;61.37;101645.03;692259;28;784;-80